Time;durP1;ratioP1;P1;durP2;ratioP2;P2;SDS_P1;SDS_P2;PMS_P1;PMS_P2;Temp;Humidity;BMP_temperature;BMP_pressure;BME280_temperature;BME280_humidity;BME280_pressure;Samples;Min_cycle;Max_cycle;Signal;HPM_P1;HPM_P2
2023/01/30 00:02:11;;;;;;;25.80;10.77;;;;;;;1.84;100.00;97776.25;5038099;28;20048;-78
2023/01/30 00:04:36;;;;;;;24.40;11.18;;;;;;;1.99;100.00;97791.72;5056795;28;20047;-78
2023/01/30 00:07:02;;;;;;;31.85;11.88;;;;;;;1.98;100.00;97795.25;5041161;28;20431;-78
2023/01/30 00:09:27;;;;;;;22.92;10.50;;;;;;;1.95;100.00;97795.31;5048659;28;20035;-79
2023/01/30 00:11:53;;;;;;;27.42;10.88;;;;;;;1.93;100.00;97790.09;5050848;28;20040;-78
2023/01/30 00:14:19;;;;;;;25.17;11.05;;;;;;;1.80;100.00;97771.94;5043872;28;20404;-77
2023/01/30 00:16:44;;;;;;;29.58;11.18;;;;;;;1.76;100.00;97775.53;5041456;28;20063;-78
2023/01/30 00:19:10;;;;;;;22.92;11.00;;;;;;;1.80;100.00;97790.41;5054903;28;20025;-79
2023/01/30 00:21:36;;;;;;;29.63;11.55;;;;;;;1.87;100.00;97784.09;5042951;28;20136;-79
2023/01/30 00:24:01;;;;;;;28.45;11.02;;;;;;;1.88;100.00;97780.53;5041939;28;20055;-79
2023/01/30 00:26:26;;;;;;;30.33;11.77;;;;;;;1.88;100.00;97768.22;5041899;28;20032;-79
2023/01/30 00:28:52;;;;;;;35.95;12.18;;;;;;;1.99;100.00;97786.44;5036398;28;20420;-78
2023/01/30 00:31:17;;;;;;;25.75;11.95;;;;;;;1.97;100.00;97772.44;5052722;28;20142;-79
2023/01/30 00:33:43;;;;;;;28.20;11.93;;;;;;;1.95;100.00;97764.53;5036263;28;20102;-79
2023/01/30 00:36:09;;;;;;;29.58;11.35;;;;;;;1.96;100.00;97761.00;5036045;28;20485;-78
2023/01/30 00:38:35;;;;;;;26.67;11.02;;;;;;;1.90;100.00;97763.78;5036140;28;20520;-78
2023/01/30 00:41:00;;;;;;;25.00;11.27;;;;;;;1.93;100.00;97768.13;5052939;28;20416;-78
2023/01/30 00:49:31;;;;;;;32.15;13.52;;;;;;;1.48;100.00;97697.13;5073173;28;20094;-78
2023/01/30 00:51:57;;;;;;;30.02;13.15;;;;;;;1.76;100.00;97746.53;5045052;28;20486;-78
2023/01/30 00:54:22;;;;;;;34.53;13.85;;;;;;;1.77;100.00;97740.38;5061483;28;20381;-78
2023/01/30 00:56:48;;;;;;;29.63;12.85;;;;;;;1.75;100.00;97756.25;5056570;28;20025;-79
2023/01/30 00:59:13;;;;;;;31.65;14.48;;;;;;;1.74;100.00;97759.78;5045183;28;20020;-79
2023/01/30 01:01:39;;;;;;;31.45;12.30;;;;;;;1.76;100.00;97757.09;5039996;28;20428;-78
2023/01/30 01:04:06;;;;;;;25.95;11.55;;;;;;;1.95;100.00;97763.66;5068889;28;20040;-78
2023/01/30 01:06:31;;;;;;;31.73;12.75;;;;;;;1.99;100.00;97749.50;5066426;28;20052;-78
2023/01/30 01:08:57;;;;;;;25.95;11.32;;;;;;;2.04;100.00;97758.16;5045435;28;20475;-78
2023/01/30 01:11:25;;;;;;;26.58;11.95;;;;;;;1.97;100.00;97740.78;5055984;28;20046;-79
2023/01/30 01:13:55;;;;;;;25.45;11.10;;;;;;;2.04;100.00;97740.56;5054170;28;20090;-78
2023/01/30 01:16:21;;;;;;;26.20;11.30;;;;;;;1.99;100.00;97729.28;5053819;28;20511;-78
2023/01/30 01:18:47;;;;;;;33.60;12.02;;;;;;;1.98;100.00;97729.28;5035389;28;20056;-77
2023/01/30 01:21:12;;;;;;;28.13;11.40;;;;;;;1.98;100.00;97724.03;5059214;28;20108;-79
2023/01/30 01:23:38;;;;;;;28.83;11.27;;;;;;;1.95;100.00;97724.09;5049224;28;20025;-78
2023/01/30 01:26:03;;;;;;;22.45;10.85;;;;;;;1.98;100.00;97729.28;5042431;28;20553;-78
2023/01/30 01:28:29;;;;;;;21.15;9.80;;;;;;;1.90;100.00;97704.91;5052087;28;20027;-78
2023/01/30 01:31:10;;;;;;;21.52;10.00;;;;;;;1.86;100.00;97703.25;5044125;28;20023;-78
2023/01/30 01:33:35;;;;;;;27.20;11.15;;;;;;;1.70;100.00;97702.75;5057842;28;20411;-78
2023/01/30 01:36:01;;;;;;;25.27;10.15;;;;;;;1.67;100.00;97689.66;5070891;28;20104;-77
2023/01/30 01:38:27;;;;;;;26.92;11.27;;;;;;;1.56;100.00;97712.78;5057515;28;20029;-78
2023/01/30 01:41:08;;;;;;;27.13;10.80;;;;;;;1.63;100.00;97709.09;5061505;28;20033;-78
2023/01/30 01:43:37;;;;;;;25.42;10.77;;;;;;;1.64;100.00;97726.63;5064255;28;20117;-78
2023/01/30 01:46:09;;;;;;;29.42;11.48;;;;;;;1.53;100.00;97720.75;5063615;28;20037;-78
2023/01/30 01:48:41;;;;;;;27.23;10.82;;;;;;;1.51;100.00;97699.69;5036407;28;20066;-78
2023/01/30 01:51:19;;;;;;;24.27;11.07;;;;;;;1.48;100.00;97715.56;5054246;28;20056;-78
2023/01/30 01:54:21;;;;;;;27.80;11.25;;;;;;;1.58;100.00;97725.00;5048320;28;20040;-78
2023/01/30 01:56:47;;;;;;;31.40;12.20;;;;;;;1.58;100.00;97717.09;5064603;28;20037;-79
2023/01/30 01:59:46;;;;;;;28.17;11.65;;;;;;;1.62;100.00;97723.16;5035355;28;20512;-78
2023/01/30 02:02:13;;;;;;;22.65;10.77;;;;;;;1.64;100.00;97722.22;5063546;28;20047;-78
2023/01/30 02:07:49;;;;;;;24.65;10.80;;;;;;;1.70;100.00;97720.34;5058414;28;20027;-78
2023/01/30 02:10:23;;;;;;;23.75;10.57;;;;;;;1.58;100.00;97693.38;5063360;28;20039;-78
2023/01/30 02:12:50;;;;;;;25.15;11.25;;;;;;;1.60;100.00;97696.84;5057677;28;20149;-79
2023/01/30 02:15:16;;;;;;;26.73;11.25;;;;;;;1.64;100.00;97677.41;5065280;28;20028;-79
2023/01/30 02:17:42;;;;;;;23.38;11.05;;;;;;;1.63;100.00;97680.09;5045593;28;20024;-78
2023/01/30 02:20:29;;;;;;;28.65;11.25;;;;;;;1.53;100.00;97684.72;5039858;28;20029;-78
2023/01/30 02:23:23;;;;;;;24.38;10.98;;;;;;;1.45;100.00;97676.13;5063606;28;20422;-79
2023/01/30 02:26:33;;;;;;;27.13;11.15;;;;;;;1.42;100.00;97663.03;5050505;28;20028;-79
2023/01/30 02:29:18;;;;;;;23.20;10.75;;;;;;;1.48;100.00;97673.41;5033151;28;20177;-79
2023/01/30 02:31:46;;;;;;;25.45;11.15;;;;;;;1.44;100.00;97671.78;5060924;28;20438;-78
2023/01/30 02:34:23;;;;;;;24.92;10.48;;;;;;;1.42;100.00;97678.84;5065630;28;20029;-79
2023/01/30 02:37:33;;;;;;;24.30;11.02;;;;;;;1.49;100.00;97675.16;5056114;28;20094;-77
2023/01/30 02:40:29;;;;;;;22.90;10.23;;;;;;;1.51;100.00;97683.88;5050613;28;20029;-79
2023/01/30 02:43:12;;;;;;;22.75;9.85;;;;;;;1.54;100.00;97682.94;5055790;28;20037;-78
2023/01/30 02:45:44;;;;;;;26.33;9.25;;;;;;;1.46;100.00;97688.41;5039289;28;20528;-77
2023/01/30 02:48:14;;;;;;;25.85;10.38;;;;;;;1.38;100.00;97690.38;5056783;28;20028;-78
2023/01/30 02:50:42;;;;;;;23.98;10.57;;;;;;;1.47;100.00;97713.00;5051466;28;20033;-78
2023/01/30 02:53:08;;;;;;;23.85;10.02;;;;;;;1.52;100.00;97721.66;5048320;28;20391;-77
2023/01/30 02:55:34;;;;;;;24.80;10.23;;;;;;;1.50;100.00;97726.97;5070511;28;20032;-78
2023/01/30 02:58:01;;;;;;;29.45;10.65;;;;;;;1.52;100.00;97724.28;5044188;28;20029;-79
2023/01/30 03:01:03;;;;;;;27.88;10.55;;;;;;;1.49;100.00;97729.63;5047492;28;20033;-79
2023/01/30 03:03:34;;;;;;;25.73;10.57;;;;;;;1.42;100.00;97728.03;5068018;28;20044;-78
2023/01/30 03:06:44;;;;;;;17.83;7.25;;;;;;;1.34;100.00;97728.22;5051984;28;20036;-77
2023/01/30 03:09:24;;;;;;;27.70;10.13;;;;;;;1.37;100.00;97725.50;4987223;28;20069;-78
2023/01/30 03:12:13;;;;;;;24.60;9.57;;;;;;;1.39;100.00;97733.38;5058607;28;20029;-78
2023/01/30 03:14:46;;;;;;;21.80;9.70;;;;;;;1.36;100.00;97721.13;5047983;28;20145;-78
2023/01/30 03:17:13;;;;;;;24.05;10.50;;;;;;;1.33;100.00;97718.56;5045225;28;20037;-78
2023/01/30 03:19:41;;;;;;;29.85;10.40;;;;;;;1.23;100.00;97724.94;5058445;28;20131;-78
2023/01/30 03:22:06;;;;;;;28.27;9.88;;;;;;;1.16;100.00;97733.91;5057798;28;20416;-78
2023/01/30 03:24:32;;;;;;;29.20;10.30;;;;;;;1.19;100.00;97738.22;5052081;28;20098;-80
2023/01/30 03:27:02;;;;;;;28.05;9.88;;;;;;;1.11;100.00;97733.13;5059953;28;20094;-78
2023/01/30 03:29:28;;;;;;;26.85;10.35;;;;;;;1.09;100.00;97734.91;5037484;28;20104;-79
2023/01/30 03:31:53;;;;;;;23.52;10.48;;;;;;;1.18;100.00;97739.13;5041580;28;20507;-77
2023/01/30 03:34:19;;;;;;;22.60;9.88;;;;;;;1.21;100.00;97750.47;5054182;28;20032;-78
2023/01/30 03:36:46;;;;;;;26.63;10.50;;;;;;;1.11;100.00;97740.19;5037625;28;20051;-78
2023/01/30 03:39:11;;;;;;;23.20;10.20;;;;;;;1.14;100.00;97740.09;5048333;28;20020;-77
2023/01/30 03:41:37;;;;;;;25.92;10.65;;;;;;;1.16;100.00;97747.06;5055344;28;20511;-77
2023/01/30 03:44:03;;;;;;;32.08;13.70;;;;;;;0.97;100.00;97737.81;5056044;28;20037;-78
2023/01/30 03:46:28;;;;;;;26.35;10.27;;;;;;;0.97;100.00;97737.81;5043994;28;20083;-78
2023/01/30 03:48:54;;;;;;;23.08;10.65;;;;;;;1.09;100.00;97748.09;5049855;28;20039;-78
2023/01/30 03:51:19;;;;;;;31.83;10.20;;;;;;;1.01;100.00;97739.50;5045534;28;20055;-78
2023/01/30 03:53:45;;;;;;;22.02;9.27;;;;;;;1.00;100.00;97737.75;5041978;28;20028;-79
2023/01/30 03:56:11;;;;;;;25.85;9.65;;;;;;;0.93;100.00;97728.25;5036112;28;20473;-78
2023/01/30 03:58:36;;;;;;;22.63;9.38;;;;;;;0.95;100.00;97734.38;5037039;28;20049;-78
2023/01/30 04:01:02;;;;;;;24.27;9.45;;;;;;;0.87;100.00;97737.16;5051610;28;20117;-79
2023/01/30 04:03:27;;;;;;;26.67;10.90;;;;;;;0.87;100.00;97736.28;5061552;28;20036;-78
2023/01/30 04:05:53;;;;;;;26.33;11.90;;;;;;;0.93;100.00;97746.69;5073627;28;20036;-79
2023/01/30 04:08:18;;;;;;;22.13;10.25;;;;;;;0.98;100.00;97744.84;5068311;28;20411;-79
2023/01/30 04:10:44;;;;;;;26.63;10.25;;;;;;;1.01;100.00;97744.78;5057832;28;20111;-79
2023/01/30 04:13:09;;;;;;;22.92;10.13;;;;;;;1.00;100.00;97754.44;5054704;28;20412;-77
2023/01/30 04:15:35;;;;;;;26.95;11.40;;;;;;;1.00;100.00;97746.53;5074268;28;20525;-79
2023/01/30 04:18:00;;;;;;;22.50;9.27;;;;;;;1.01;100.00;97745.63;5056960;28;20035;-78
2023/01/30 04:20:25;;;;;;;24.98;10.05;;;;;;;1.04;100.00;97731.53;5057250;28;20420;-78
2023/01/30 04:22:51;;;;;;;21.52;9.75;;;;;;;1.04;100.00;97731.53;5048156;28;20035;-79
2023/01/30 04:25:16;;;;;;;22.00;9.70;;;;;;;1.00;100.00;97728.09;5048251;28;20089;-79
2023/01/30 04:27:42;;;;;;;25.63;10.50;;;;;;;1.07;100.00;97727.06;5042813;28;20514;-79
2023/01/30 04:30:08;;;;;;;26.10;10.75;;;;;;;1.12;100.00;97732.22;5067364;28;20034;-78
2023/01/30 04:32:34;;;;;;;24.13;10.35;;;;;;;1.16;100.00;97731.25;5064838;28;20035;-77
2023/01/30 04:34:59;;;;;;;21.85;10.38;;;;;;;1.12;100.00;97721.69;5050416;28;20016;-77
2023/01/30 04:37:24;;;;;;;27.98;11.63;;;;;;;1.16;100.00;97726.00;5060613;28;20036;-77
2023/01/30 04:39:50;;;;;;;24.58;10.65;;;;;;;1.15;100.00;97715.47;5059305;28;20074;-78
2023/01/30 04:42:15;;;;;;;24.17;9.82;;;;;;;1.11;100.00;97717.31;5062559;28;20453;-78
2023/01/30 04:44:41;;;;;;;28.05;10.10;;;;;;;1.03;100.00;97711.34;5054583;28;20070;-78
2023/01/30 04:47:06;;;;;;;22.67;10.13;;;;;;;1.04;100.00;97707.84;5060578;28;20024;-78
2023/01/30 04:49:32;;;;;;;21.63;9.23;;;;;;;1.05;100.00;97714.81;5078347;28;20088;-79
2023/01/30 04:52:07;;;;;;;26.15;11.02;;;;;;;1.04;100.00;97718.38;5053336;28;20024;-78
2023/01/30 04:54:32;;;;;;;25.98;11.07;;;;;;;1.06;100.00;97717.44;5065831;28;20055;-77
2023/01/30 04:56:58;;;;;;;23.23;9.82;;;;;;;1.06;100.00;97716.56;5074008;28;20028;-79
2023/01/30 04:59:23;;;;;;;21.75;9.82;;;;;;;1.07;100.00;97720.94;5065415;28;20110;-79
2023/01/30 05:01:49;;;;;;;25.35;10.07;;;;;;;1.05;100.00;97731.47;5050963;28;20087;-78
2023/01/30 05:04:14;;;;;;;25.55;11.00;;;;;;;1.08;100.00;97741.06;5059541;28;20514;-77
2023/01/30 05:06:40;;;;;;;26.98;11.32;;;;;;;1.12;100.00;97734.84;5059211;28;20499;-77
2023/01/30 05:09:06;;;;;;;23.10;10.82;;;;;;;1.01;100.00;97723.69;5043993;28;20029;-77
2023/01/30 05:11:32;;;;;;;29.20;11.18;;;;;;;1.05;100.00;97731.47;5060334;28;20075;-79
2023/01/30 05:13:57;;;;;;;21.13;9.88;;;;;;;1.05;100.00;97743.78;5061565;28;20447;-76
2023/01/30 05:16:26;;;;;;;27.20;10.98;;;;;;;1.01;100.00;97745.63;5056828;28;20051;-78
2023/01/30 05:18:51;;;;;;;23.27;10.27;;;;;;;0.92;100.00;97742.31;5051143;28;20481;-80
2023/01/30 05:21:20;;;;;;;32.15;10.77;;;;;;;0.90;100.00;97757.28;5069582;28;20043;-80
2023/01/30 05:23:45;;;;;;;26.58;11.60;;;;;;;0.90;100.00;97752.00;5057875;28;20033;-79
2023/01/30 05:26:12;;;;;;;24.35;10.13;;;;;;;1.00;100.00;97764.09;5054812;28;20101;-79
2023/01/30 05:28:39;;;;;;;30.70;12.43;;;;;;;0.97;100.00;97749.22;5050898;28;20109;-78
2023/01/30 05:31:12;;;;;;;76.70;31.17;;;;;;;1.04;100.00;97765.78;5060523;28;20037;-80
2023/01/30 05:33:40;;;;;;;30.55;13.50;;;;;;;1.03;100.00;97756.13;5048782;28;20071;-79
2023/01/30 05:36:15;;;;;;;24.75;11.15;;;;;;;0.99;100.00;97751.81;5073485;28;20032;-81
2023/01/30 05:38:42;;;;;;;28.42;11.88;;;;;;;0.91;100.00;97743.22;5036406;28;20591;-79
2023/01/30 05:41:08;;;;;;;30.75;11.70;;;;;;;0.92;100.00;97750.22;5060026;28;20029;-82
2023/01/30 05:43:34;;;;;;;38.35;14.88;;;;;;;0.98;100.00;97758.00;5065367;28;20021;-80
2023/01/30 05:46:03;;;;;;;38.10;18.27;;;;;;;0.89;100.00;97756.41;5063043;28;20021;-80
2023/01/30 05:48:29;;;;;;;30.08;14.45;;;;;;;0.78;100.00;97752.25;5038242;28;20029;-79
2023/01/30 05:50:56;;;;;;;28.08;12.60;;;;;;;0.75;100.00;97753.19;5064481;28;20032;-80
2023/01/30 05:53:26;;;;;;;29.85;12.68;;;;;;;0.81;100.00;97768.00;5057561;28;20028;-79
2023/01/30 05:55:59;;;;;;;32.22;13.18;;;;;;;0.74;100.00;97764.59;5043059;28;20028;-79
2023/01/30 05:58:27;;;;;;;32.67;13.35;;;;;;;0.76;100.00;97776.00;5041618;28;20028;-79
2023/01/30 06:00:53;;;;;;;35.00;13.77;;;;;;;0.82;100.00;97781.13;5047712;28;20082;-79
2023/01/30 06:03:19;;;;;;;34.40;15.13;;;;;;;0.86;100.00;97776.69;5051185;28;20438;-80
2023/01/30 06:05:45;;;;;;;34.92;14.93;;;;;;;0.83;100.00;97782.84;5046548;28;20127;-79
2023/01/30 06:08:10;;;;;;;34.78;14.82;;;;;;;0.84;100.00;97789.84;5059708;28;20024;-79
2023/01/30 06:10:36;;;;;;;32.05;14.13;;;;;;;0.83;100.00;97776.75;5042686;28;20050;-79
2023/01/30 06:13:02;;;;;;;40.28;15.20;;;;;;;0.82;100.00;97769.72;5043275;28;20423;-78
2023/01/30 06:15:27;;;;;;;37.67;15.13;;;;;;;0.84;100.00;97776.69;5053393;28;20039;-78
2023/01/30 06:17:53;;;;;;;47.75;19.75;;;;;;;0.74;100.00;97766.41;5070463;28;20027;-77
2023/01/30 06:20:18;;;;;;;34.95;14.18;;;;;;;0.85;100.00;97783.72;5044391;28;20025;-80
2023/01/30 06:22:47;;;;;;;41.83;12.90;;;;;;;0.75;100.00;97773.38;5058637;28;20063;-78
2023/01/30 06:25:13;;;;;;;40.83;14.15;;;;;;;0.79;100.00;97775.06;5056354;28;20020;-79
2023/01/30 06:27:42;;;;;;;27.80;10.43;;;;;;;0.84;100.00;97783.72;5060025;28;20096;-79
2023/01/30 06:30:11;;;;;;;31.80;12.05;;;;;;;0.84;100.00;97773.19;5055672;28;20067;-81
2023/01/30 06:32:37;;;;;;;32.63;13.15;;;;;;;0.78;100.00;97754.88;5057795;28;20415;-79
2023/01/30 06:35:02;;;;;;;35.50;14.90;;;;;;;0.84;100.00;97752.13;5059940;28;20028;-80
2023/01/30 06:37:28;;;;;;;32.45;13.63;;;;;;;0.95;100.00;97771.22;5049459;28;20021;-79
2023/01/30 06:39:54;;;;;;;66.60;27.00;;;;;;;0.99;100.00;97772.88;5046215;28;20036;-79
2023/01/30 06:42:19;;;;;;;61.17;24.80;;;;;;;1.00;100.00;97772.00;5044623;28;20498;-80
2023/01/30 06:44:44;;;;;;;23.98;10.52;;;;;;;1.04;100.00;97768.41;5046373;28;20484;-79
2023/01/30 06:47:10;;;;;;;26.35;9.93;;;;;;;0.97;100.00;97756.25;5059342;28;20024;-78
2023/01/30 06:49:35;;;;;;;22.48;10.57;;;;;;;1.00;100.00;97753.56;5049577;28;20583;-79
2023/01/30 06:52:01;;;;;;;24.40;11.68;;;;;;;1.06;100.00;97761.31;5052279;28;20028;-79
2023/01/30 06:54:26;;;;;;;28.98;11.48;;;;;;;1.03;100.00;97756.13;5064724;28;20487;-77
2023/01/30 06:56:52;;;;;;;35.97;13.93;;;;;;;1.02;100.00;97757.88;5055671;28;20028;-80
2023/01/30 06:59:18;;;;;;;28.92;12.32;;;;;;;1.08;100.00;97759.50;5055458;28;20092;-79
2023/01/30 07:01:43;;;;;;;26.33;11.85;;;;;;;1.14;100.00;97756.75;5059727;28;20053;-79
2023/01/30 07:04:09;;;;;;;31.25;13.35;;;;;;;1.13;100.00;97748.91;5044881;28;20123;-78
2023/01/30 07:06:34;;;;;;;29.25;13.15;;;;;;;1.14;100.00;97740.94;5057102;28;20044;-79
2023/01/30 07:09:00;;;;;;;42.47;18.65;;;;;;;1.24;100.00;97763.56;5051381;28;20060;-79
2023/01/30 07:11:25;;;;;;;31.27;14.88;;;;;;;1.22;100.00;97760.09;5060485;28;20373;-79
2023/01/30 07:13:51;;;;;;;31.75;13.73;;;;;;;1.22;100.00;97765.38;5045765;28;20063;-79
2023/01/30 07:19:24;;;;;;;44.80;18.15;;;;;;;1.13;100.00;97739.25;5004424;28;20477;-80
2023/01/30 07:21:49;;;;;;;56.08;22.85;;;;;;;1.17;100.00;97753.22;5068436;28;20084;-79
2023/01/30 07:24:15;;;;;;;49.75;21.27;;;;;;;1.09;100.00;97742.81;5035256;28;20412;-79
2023/01/30 07:26:40;;;;;;;50.50;19.90;;;;;;;1.14;100.00;97751.47;5068287;28;20025;-80
2023/01/30 07:29:06;;;;;;;43.88;18.13;;;;;;;1.14;100.00;97750.63;5064626;28;20049;-78
2023/01/30 07:31:31;;;;;;;28.60;13.35;;;;;;;1.16;100.00;97754.09;5052974;28;20444;-78
2023/01/30 07:33:56;;;;;;;50.38;20.85;;;;;;;1.24;100.00;97760.06;5059568;28;20087;-79
2023/01/30 07:36:22;;;;;;;31.55;11.98;;;;;;;1.31;100.00;97770.44;5046312;28;20049;-78
2023/01/30 07:38:48;;;;;;;32.97;13.93;;;;;;;1.31;100.00;97759.91;5044935;28;20028;-78
2023/01/30 07:41:14;;;;;;;31.83;13.45;;;;;;;1.29;100.00;97745.03;5047917;28;20032;-78
2023/01/30 07:43:39;;;;;;;29.55;12.50;;;;;;;1.34;100.00;97737.88;5050016;28;20098;-79
2023/01/30 07:46:04;;;;;;;27.02;12.20;;;;;;;1.27;100.00;97723.97;5063089;28;20025;-79
2023/01/30 07:48:30;;;;;;;26.55;11.68;;;;;;;1.39;100.00;97730.72;5063468;28;20017;-77
2023/01/30 07:50:56;;;;;;;36.45;14.98;;;;;;;1.35;100.00;97723.81;5041213;28;20456;-77
2023/01/30 07:53:21;;;;;;;25.95;11.68;;;;;;;1.34;100.00;97712.41;5058844;28;20063;-77
2023/01/30 07:55:47;;;;;;;27.33;10.77;;;;;;;1.35;100.00;97715.91;5039819;28;20032;-78
2023/01/30 07:58:16;;;;;;;26.75;10.60;;;;;;;1.48;100.00;97723.47;5054240;28;20028;-77
2023/01/30 08:00:42;;;;;;;27.67;12.63;;;;;;;1.54;100.00;97719.81;5062843;28;20477;-78
2023/01/30 08:03:15;;;;;;;24.27;11.38;;;;;;;1.54;100.00;97712.78;5062416;28;20043;-77
2023/01/30 08:05:43;;;;;;;35.25;14.85;;;;;;;1.43;100.00;97695.50;5058657;28;20560;-78
2023/01/30 08:08:08;;;;;;;46.15;18.38;;;;;;;1.47;100.00;97698.06;5051598;28;20035;-78
2023/01/30 08:10:34;;;;;;;33.35;14.68;;;;;;;1.53;100.00;97703.19;5056418;28;20332;-78
2023/01/30 08:12:59;;;;;;;27.83;12.25;;;;;;;1.53;100.00;97683.84;5089746;28;20484;-77
2023/01/30 08:15:25;;;;;;;26.67;10.65;;;;;;;1.60;100.00;97694.19;5040898;28;20029;-78
2023/01/30 08:17:56;;;;;;;27.70;12.98;;;;;;;1.64;100.00;97685.31;5043530;28;20483;-77
2023/01/30 08:20:22;;;;;;;24.30;10.73;;;;;;;1.69;100.00;97671.16;5069201;28;20050;-78
2023/01/30 08:22:50;;;;;;;28.63;12.93;;;;;;;1.62;100.00;97659.91;5040596;28;20036;-77
2023/01/30 08:25:16;;;;;;;25.85;10.93;;;;;;;1.63;100.00;97659.84;5052938;28;20032;-77
2023/01/30 08:27:42;;;;;;;36.33;15.60;;;;;;;1.79;100.00;97667.38;5042897;28;20028;-77
2023/01/30 08:30:09;;;;;;;29.15;11.85;;;;;;;1.88;100.00;97659.22;5062807;28;20110;-78
2023/01/30 08:32:34;;;;;;;27.23;10.80;;;;;;;1.79;100.00;97639.25;5040609;28;20024;-78
2023/01/30 08:35:00;;;;;;;46.17;20.15;;;;;;;1.85;100.00;97644.34;5064002;28;20108;-78
2023/01/30 08:37:25;;;;;;;26.45;11.30;;;;;;;1.98;100.00;97647.53;5053168;28;20115;-78
2023/01/30 08:39:51;;;;;;;29.80;12.52;;;;;;;2.04;100.00;97636.81;5068227;28;20132;-79
2023/01/30 08:42:16;;;;;;;23.30;10.23;;;;;;;2.13;100.00;97623.38;5065636;28;20036;-79
2023/01/30 08:44:42;;;;;;;24.70;10.70;;;;;;;2.28;100.00;97630.88;5047542;28;20037;-77
2023/01/30 08:47:07;;;;;;;18.55;9.20;;;;;;;2.27;100.00;97600.13;5056148;28;20082;-78
2023/01/30 08:49:33;;;;;;;19.17;9.02;;;;;;;2.40;100.00;97598.84;5064269;28;20036;-79
2023/01/30 08:51:58;;;;;;;22.30;9.63;;;;;;;2.49;100.00;97598.59;5048439;28;20021;-78
2023/01/30 08:54:24;;;;;;;25.02;11.68;;;;;;;2.64;100.00;97602.56;5067328;28;20439;-77
2023/01/30 08:56:49;;;;;;;27.80;10.45;;;;;;;2.70;100.00;97597.97;5057528;28;20385;-80
2023/01/30 08:59:15;;;;;;;20.90;10.77;;;;;;;2.71;100.00;97583.84;5065102;28;20024;-78
2023/01/30 09:01:40;;;;;;;25.08;12.07;;;;;;;2.84;100.00;97583.47;5063747;28;20040;-77
2023/01/30 09:04:06;;;;;;;30.75;15.60;;;;;;;2.75;100.00;97563.50;5039728;28;20494;-79
2023/01/30 09:06:31;;;;;;;32.67;15.27;;;;;;;2.69;100.00;97558.41;5040445;28;20024;-78
2023/01/30 09:08:58;;;;;;;23.30;10.23;;;;;;;2.80;100.00;97550.16;5048885;28;20066;-78
2023/01/30 09:11:24;;;;;;;23.52;10.40;;;;;;;3.00;100.00;97561.81;5047526;28;20097;-78
2023/01/30 09:13:49;;;;;;;27.10;11.65;;;;;;;3.10;100.00;97543.91;5047505;28;20036;-78
2023/01/30 09:16:15;;;;;;;21.27;9.90;;;;;;;2.98;100.00;97544.28;5043322;28;20027;-78
2023/01/30 09:18:42;;;;;;;20.90;10.32;;;;;;;2.95;100.00;97545.25;5044059;28;20020;-78
2023/01/30 09:21:09;;;;;;;23.83;10.40;;;;;;;3.14;100.00;97548.13;5066697;28;20032;-78
2023/01/30 09:23:35;;;;;;;27.75;11.55;;;;;;;3.31;100.00;97537.91;5092439;28;20020;-78
2023/01/30 09:26:01;;;;;;;20.38;9.35;;;;;;;3.26;100.00;97532.75;5048986;28;20035;-77
2023/01/30 09:28:33;;;;;;;19.33;8.52;;;;;;;3.51;100.00;97534.56;5068750;28;20032;-77
2023/01/30 09:31:02;;;;;;;18.65;8.55;;;;;;;3.66;100.00;97524.31;5050965;28;20031;-78
2023/01/30 09:33:28;;;;;;;19.02;9.07;;;;;;;3.82;100.00;97503.47;5059032;28;20028;-78
2023/01/30 09:35:54;;;;;;;20.23;8.90;;;;;;;3.95;100.00;97490.66;5060066;28;20404;-77
2023/01/30 09:38:20;;;;;;;21.42;9.88;;;;;;;3.76;100.00;97482.53;5058502;28;20024;-77
2023/01/30 09:40:58;;;;;;;24.35;10.73;;;;;;;3.90;100.00;97497.94;5073784;28;20028;-77
2023/01/30 09:43:30;;;;;;;23.70;9.32;;;;;;;3.72;100.00;97484.44;5064683;28;20035;-78
2023/01/30 09:45:59;;;;;;;20.65;9.80;;;;;;;3.64;100.00;97491.78;5055021;28;20047;-78
2023/01/30 09:48:41;;;;;;;21.67;9.70;;;;;;;3.84;100.00;97486.63;5067989;28;20039;-78
2023/01/30 09:51:24;;;;;;;25.63;10.88;;;;;;;4.06;100.00;97494.66;5058501;28;20024;-78
2023/01/30 09:54:00;;;;;;;19.40;8.88;;;;;;;4.15;100.00;97477.59;5071019;28;20066;-78
2023/01/30 09:56:26;;;;;;;22.63;10.32;;;;;;;4.02;100.00;97457.78;5067941;28;20035;-78
2023/01/30 09:58:57;;;;;;;22.75;10.80;;;;;;;4.21;100.00;97456.19;5058889;28;20027;-78
2023/01/30 10:01:49;;;;;;;24.08;11.85;;;;;;;4.10;100.00;97431.88;5058413;28;20059;-79
2023/01/30 10:04:19;;;;;;;;;;;;;;;3.76;100.00;97441.09;5076790;28;20078;-78
2023/01/30 10:07:13;;;;;;;27.10;11.82;;;;;;;3.92;100.00;97445.81;5048098;28;20438;-77
2023/01/30 10:09:53;;;;;;;29.75;11.82;;;;;;;3.63;100.00;97444.25;5062498;28;20162;-80
2023/01/30 10:12:28;;;;;;;27.45;11.50;;;;;;;3.78;100.00;97448.97;5063828;28;20023;-78
2023/01/30 10:14:56;;;;;;;26.40;12.10;;;;;;;3.52;100.00;97431.41;5078154;28;20028;-77
2023/01/30 10:17:45;;;;;;;29.75;12.07;;;;;;;3.43;100.00;97431.75;5045029;28;20089;-78
2023/01/30 10:20:24;;;;;;;31.65;13.95;;;;;;;3.71;100.00;97426.31;5061926;28;20403;-78
2023/01/30 10:23:17;;;;;;;34.25;14.35;;;;;;;4.00;100.00;97420.78;5061589;28;20393;-78
2023/01/30 10:25:46;;;;;;;28.75;12.55;;;;;;;4.18;100.00;97400.72;5070280;28;20177;-78
2023/01/30 10:28:37;;;;;;;31.92;14.25;;;;;;;3.63;100.00;97371.03;5060641;28;20024;-78
2023/01/30 10:31:07;;;;;;;28.95;12.68;;;;;;;3.45;100.00;97392.88;5074059;28;20419;-78
2023/01/30 10:33:44;;;;;;;36.33;16.65;;;;;;;3.32;100.00;97391.63;5038839;28;20534;-78
2023/01/30 10:36:24;;;;;;;35.55;17.05;;;;;;;3.31;100.00;97396.94;5044687;28;20058;-78
2023/01/30 10:38:51;;;;;;;33.08;15.00;;;;;;;3.69;100.00;97402.56;5060015;28;20028;-78
2023/01/30 10:41:25;;;;;;;28.13;12.38;;;;;;;3.76;100.00;97385.53;5059700;28;20483;-78
2023/01/30 10:44:12;;;;;;;27.08;12.13;;;;;;;4.22;100.00;97375.81;5060793;28;20047;-78
2023/01/30 10:47:05;;;;;;;25.38;12.05;;;;;;;4.29;100.00;97349.06;5076377;28;20099;-79
2023/01/30 10:49:51;;;;;;;23.85;11.15;;;;;;;4.18;100.00;97337.19;5070493;28;20020;-79
2023/01/30 10:52:32;;;;;;;40.65;16.80;;;;;;;4.15;100.00;97326.72;5043597;28;20112;-79
2023/01/30 10:55:06;;;;;;;35.22;15.50;;;;;;;4.30;100.00;97339.34;5095163;28;20119;-78
2023/01/30 10:57:38;;;;;;;26.85;11.40;;;;;;;4.30;100.00;97328.75;5077707;28;20024;-78
2023/01/30 11:00:21;;;;;;;26.15;11.13;;;;;;;4.17;100.00;97301.03;5075044;28;20044;-78
2023/01/30 11:03:10;;;;;;;32.03;13.00;;;;;;;3.82;100.00;97291.88;5071738;28;20052;-77
2023/01/30 11:05:48;;;;;;;27.05;11.07;;;;;;;3.98;100.00;97305.34;5071177;28;20032;-78
2023/01/30 11:08:20;;;;;;;23.33;10.95;;;;;;;4.16;100.00;97286.09;5053097;28;20094;-78
2023/01/30 11:10:46;;;;;;;23.27;11.52;;;;;;;4.12;100.00;97279.22;5052201;28;20043;-78
2023/01/30 11:13:26;;;;;;;22.83;10.75;;;;;;;4.38;100.00;97276.34;5071251;28;20498;-78
2023/01/30 11:15:53;;;;;;;27.85;11.65;;;;;;;4.41;100.00;97265.63;5054380;28;20484;-79
2023/01/30 11:18:19;;;;;;;23.08;10.95;;;;;;;4.17;100.00;97240.19;5052906;28;20514;-77
2023/01/30 11:20:59;;;;;;;26.95;13.40;;;;;;;4.35;100.00;97260.59;5050696;28;20028;-77
2023/01/30 11:23:31;;;;;;;32.20;13.82;;;;;;;4.46;100.00;97253.03;5050782;28;20031;-78
2023/01/30 11:25:58;;;;;;;25.58;11.48;;;;;;;4.66;100.00;97257.50;5046257;28;20036;-78
2023/01/30 11:28:25;;;;;;;26.00;12.40;;;;;;;4.20;100.00;97238.28;5056468;28;20090;-78
2023/01/30 11:30:59;;;;;;;34.05;14.57;;;;;;;4.18;100.00;97255.16;5051208;28;20021;-78
2023/01/30 11:33:33;;;;;;;35.97;16.80;;;;;;;4.04;100.00;97249.53;5035054;28;20035;-78
2023/01/30 11:36:02;;;;;;;41.03;19.17;;;;;;;3.35;100.00;97254.06;5033836;28;20060;-78
2023/01/30 11:38:33;;;;;;;34.00;15.20;;;;;;;3.31;100.00;97260.38;5041564;28;20111;-79
2023/01/30 11:41:04;;;;;;;36.40;16.20;;;;;;;3.43;100.00;97270.50;5046953;28;20052;-78
2023/01/30 11:43:30;;;;;;;37.30;15.88;;;;;;;3.77;100.00;97273.53;5063569;28;20029;-77